Time;durP1;ratioP1;P1;durP2;ratioP2;P2;SDS_P1;SDS_P2;PMS_P1;PMS_P2;Temp;Humidity;BMP_temperature;BMP_pressure;BME280_temperature;BME280_humidity;BME280_pressure;Samples;Min_cycle;Max_cycle;Signal;HPM_P1;HPM_P2
2022/08/17 00:00:47;;;;;;;11.83;8.17;;;24.80;40.30;;;;;;5064968;28;20446;-83
2022/08/17 00:03:19;;;;;;;9.53;7.67;;;24.70;41.20;;;;;;5052933;28;20510;-82
2022/08/17 00:05:52;;;;;;;8.80;7.90;;;24.70;42.80;;;;;;5070697;28;20458;-83
2022/08/17 00:08:21;;;;;;;8.03;7.23;;;24.60;43.50;;;;;;5047420;28;20437;-83
2022/08/17 00:10:47;;;;;;;9.57;8.73;;;24.60;44.10;;;;;;5063729;28;20540;-82
2022/08/17 00:13:29;;;;;;;13.10;9.00;;;24.60;44.20;;;;;;5076579;28;20461;-83
2022/08/17 00:15:58;;;;;;;10.10;9.07;;;24.60;45.30;;;;;;5047026;28;20456;-83
2022/08/17 00:18:25;;;;;;;11.63;9.07;;;24.60;45.90;;;;;;5052498;28;21352;-82
2022/08/17 00:20:52;;;;;;;9.60;8.40;;;24.50;47.00;;;;;;5069628;28;20421;-83
2022/08/17 00:23:17;;;;;;;14.03;8.73;;;24.50;47.60;;;;;;5054486;28;20443;-83
2022/08/17 00:25:45;;;;;;;10.17;8.40;;;24.50;48.40;;;;;;5045950;28;20457;-83
2022/08/17 00:28:13;;;;;;;9.90;8.90;;;24.30;49.70;;;;;;5053169;28;20234;-83
2022/08/17 00:30:39;;;;;;;11.10;8.47;;;24.30;50.70;;;;;;5067813;28;20432;-82
2022/08/17 00:33:36;;;;;;;9.40;8.37;;;24.20;52.20;;;;;;5052343;28;20479;-83
2022/08/17 00:36:04;;;;;;;11.37;9.00;;;24.20;53.20;;;;;;5045524;28;20212;-83
2022/08/17 00:38:30;;;;;;;11.73;10.50;;;24.20;54.90;;;;;;5069848;28;20523;-82
2022/08/17 00:41:06;;;;;;;12.87;11.57;;;24.10;56.60;;;;;;5075022;28;20443;-83
2022/08/17 00:43:52;;;;;;;10.90;9.90;;;24.00;76.00;;;;;;5053781;28;20187;-82
2022/08/17 00:46:25;;;;;;;13.30;10.37;;;23.90;58.80;;;;;;5070708;28;20499;-82
2022/08/17 00:48:51;;;;;;;16.43;11.23;;;23.80;60.40;;;;;;5072122;28;20456;-83
2022/08/17 00:51:26;;;;;;;10.53;9.53;;;23.70;61.70;;;;;;5053895;28;20428;-83
2022/08/17 00:54:05;;;;;;;13.10;10.77;;;23.70;64.30;;;;;;5052788;28;20465;-83
2022/08/17 00:56:36;;;;;;;11.73;9.50;;;23.70;65.80;;;;;;5076914;28;20445;-82
2022/08/17 00:59:05;;;;;;;10.13;9.20;;;23.70;67.40;;;;;;5069407;28;20440;-83
2022/08/17 01:01:32;;;;;;;10.80;9.80;;;23.70;68.80;;;;;;5044984;28;20521;-82
2022/08/17 01:03:58;;;;;;;10.63;9.13;;;23.60;70.80;;;;;;5055904;28;20976;-82
2022/08/17 01:06:24;;;;;;;13.30;10.50;;;23.60;71.50;;;;;;5074960;28;20465;-82
2022/08/17 01:08:52;;;;;;;13.30;9.77;;;23.50;74.10;;;;;;5051642;28;20445;-83
2022/08/17 01:11:18;;;;;;;10.53;9.57;;;23.50;74.40;;;;;;5053371;28;20958;-82
2022/08/17 01:13:44;;;;;;;12.90;9.60;;;23.50;76.80;;;;;;5056314;28;20472;-82
2022/08/17 01:16:15;;;;;;;11.00;9.90;;;23.60;78.30;;;;;;5066080;28;20447;-82
2022/08/17 01:18:43;;;;;;;11.40;9.03;;;23.60;78.50;;;;;;5053197;28;20879;-83
2022/08/17 01:21:24;;;;;;;9.57;8.60;;;23.60;79.50;;;;;;5064718;28;20437;-83
2022/08/17 01:23:50;;;;;;;10.20;9.30;;;23.60;81.30;;;;;;5071053;28;20444;-83
2022/08/17 01:26:17;;;;;;;9.33;8.13;;;23.60;82.50;;;;;;5049824;28;20529;-82
2022/08/17 01:28:43;;;;;;;11.13;10.10;;;23.60;84.10;;;;;;5069577;28;20430;-82
2022/08/17 01:31:10;;;;;;;9.63;8.80;;;23.70;85.80;;;;;;5044894;28;20438;-83
2022/08/17 01:33:36;;;;;;;10.50;9.50;;;23.60;87.00;;;;;;5046321;28;20462;-82
2022/08/17 01:36:03;;;;;;;8.40;7.60;;;23.60;88.20;;;;;;5046830;28;20475;-82
2022/08/17 01:38:30;;;;;;;12.83;8.50;;;23.60;90.10;;;;;;5064549;28;20485;-82
2022/08/17 01:41:01;;;;;;;10.60;9.10;;;23.70;90.50;;;;;;5046009;28;20425;-83
2022/08/17 01:43:38;;;;;;;8.97;8.17;;;23.70;90.90;;;;;;5061142;28;20458;-83
2022/08/17 01:46:04;;;;;;;12.47;10.73;;;23.80;91.10;;;;;;5051871;28;20448;-83
2022/08/17 01:48:35;;;;;;;10.43;7.80;;;23.80;90.70;;;;;;5062170;28;20436;-83
2022/08/17 01:51:01;;;;;;;11.63;10.53;;;23.90;90.40;;;;;;5049163;28;20524;-83
2022/08/17 01:53:37;;;;;;;14.37;10.10;;;23.80;90.20;;;;;;5042098;28;20490;-82
2022/08/17 01:56:18;;;;;;;13.30;10.67;;;23.80;89.90;;;;;;5050752;28;20209;-82
2022/08/17 01:58:45;;;;;;;11.40;10.30;;;23.70;89.10;;;;;;5073033;28;20450;-82
2022/08/17 02:01:13;;;;;;;11.57;10.33;;;23.60;89.80;;;;;;5064807;28;20529;-83
2022/08/17 02:03:40;;;;;;;11.57;10.47;;;23.50;89.20;;;;;;5059755;28;20949;-82
2022/08/17 02:06:06;;;;;;;13.23;9.43;;;23.40;90.30;;;;;;5044632;28;20920;-82
2022/08/17 02:08:34;;;;;;;14.00;10.40;;;23.40;91.00;;;;;;5043999;28;21007;-82
2022/08/17 02:11:01;;;;;;;12.63;11.47;;;23.40;92.00;;;;;;5065848;28;20433;-83
2022/08/17 02:13:28;;;;;;;13.30;12.13;;;23.30;91.70;;;;;;5043662;28;20465;-83
2022/08/17 02:15:57;;;;;;;20.07;11.47;;;23.20;92.00;;;;;;5069153;28;20461;-82
2022/08/17 02:18:24;;;;;;;17.83;10.53;;;23.10;91.60;;;;;;5040620;28;20433;-82
2022/08/17 02:20:51;;;;;;;16.70;10.50;;;23.10;92.90;;;;;;5047953;28;20591;-82
2022/08/17 02:23:17;;;;;;;12.60;10.00;;;23.00;93.70;;;;;;5043165;28;20434;-82
2022/08/17 02:25:46;;;;;;;15.27;10.97;;;23.00;94.60;;;;;;5064636;28;20456;-82
2022/08/17 02:28:12;;;;;;;20.27;10.60;;;22.90;95.90;;;;;;5065962;28;20439;-83
2022/08/17 02:30:39;;;;;;;17.60;11.07;;;22.80;96.60;;;;;;5064812;28;20432;-82
2022/08/17 02:33:07;;;;;;;21.13;11.47;;;22.80;97.80;;;;;;5049762;28;20983;-82
2022/08/17 02:35:36;;;;;;;13.40;10.70;;;22.80;98.50;;;;;;5069792;28;20447;-82
2022/08/17 02:38:04;;;;;;;11.50;10.27;;;22.60;99.90;;;;;;5060548;28;20451;-83
2022/08/17 02:40:29;;;;;;;14.40;10.20;;;22.60;99.90;;;;;;5049158;28;20785;-82
2022/08/17 02:42:55;;;;;;;16.40;10.10;;;22.50;99.90;;;;;;5047012;28;20565;-83
2022/08/17 02:45:22;;;;;;;16.87;10.30;;;22.50;99.90;;;;;;5046963;28;20435;-82
2022/08/17 02:47:49;;;;;;;15.97;10.10;;;22.50;99.90;;;;;;5049712;28;20999;-83
2022/08/17 02:50:17;;;;;;;13.73;9.80;;;22.50;99.90;;;;;;5072958;28;20490;-83
2022/08/17 02:52:45;;;;;;;17.00;9.97;;;22.50;99.90;;;;;;5074573;28;20473;-82
2022/08/17 02:55:17;;;;;;;19.43;9.70;;;22.40;99.90;;;;;;5070562;28;20442;-83
2022/08/17 02:57:43;;;;;;;19.40;10.53;;;22.40;99.90;;;;;;5050139;28;20440;-82
2022/08/17 03:00:20;;;;;;;15.53;9.40;;;22.30;99.90;;;;;;5069250;28;20431;-83
2022/08/17 03:02:46;;;;;;;22.70;10.30;;;22.30;99.90;;;;;;5054037;28;20449;-83
2022/08/17 03:05:13;;;;;;;22.60;9.60;;;22.30;99.90;;;;;;5047858;28;20490;-83
2022/08/17 03:07:39;;;;;;;13.43;9.63;;;22.30;99.90;;;;;;5063954;28;20455;-82
2022/08/17 03:10:06;;;;;;;18.03;9.00;;;22.30;99.90;;;;;;5046718;28;20518;-82
2022/08/17 03:12:36;;;;;;;14.57;9.33;;;22.30;99.90;;;;;;5064437;28;20208;-82
2022/08/17 03:15:09;;;;;;;13.40;10.00;;;22.30;99.90;;;;;;5046445;28;20450;-82
2022/08/17 03:17:34;;;;;;;11.27;9.57;;;22.30;99.90;;;;;;5050133;28;20505;-83
2022/08/17 03:20:00;;;;;;;12.80;9.07;;;22.20;99.90;;;;;;5044925;28;20854;-82
2022/08/17 03:22:27;;;;;;;14.07;9.67;;;22.20;99.90;;;;;;5052688;28;20283;-83
2022/08/17 03:24:53;;;;;;;15.97;9.60;;;22.10;99.90;;;;;;5069828;28;20197;-82
2022/08/17 03:27:19;;;;;;;17.03;11.00;;;22.10;99.90;;;;;;5049328;28;20458;-82
2022/08/17 03:29:44;;;;;;;14.50;10.27;;;22.10;99.90;;;;;;5056515;28;20427;-82
2022/08/17 03:32:15;;;;;;;20.07;10.17;;;22.20;99.90;;;;;;5051751;28;20185;-82
2022/08/17 03:34:41;;;;;;;14.10;10.83;;;22.20;99.90;;;;;;5075092;28;20216;-83
2022/08/17 03:37:06;;;;;;;14.97;10.60;;;22.20;99.90;;;;;;5076035;28;20525;-83
2022/08/17 03:39:32;;;;;;;10.23;8.00;;;22.10;99.90;;;;;;5079511;28;20573;-83
2022/08/17 03:42:07;;;;;;;12.97;9.93;;;22.10;99.90;;;;;;5059427;28;20225;-82
2022/08/17 03:44:33;;;;;;;15.27;10.40;;;22.00;99.90;;;;;;5051016;28;20208;-83
2022/08/17 03:57:55;;;;;;;16.43;12.40;;;22.00;99.90;;;;;;5069284;28;20443;-82
2022/08/17 04:00:21;;;;;;;14.70;12.63;;;21.90;99.90;;;;;;5080768;28;20451;-82
2022/08/17 04:02:46;;;;;;;13.20;11.83;;;21.90;99.90;;;;;;5053269;28;20190;-82
2022/08/17 04:05:13;;;;;;;14.83;11.27;;;21.90;99.90;;;;;;5057655;28;20248;-82
2022/08/17 04:07:39;;;;;;;15.37;13.43;;;21.90;99.90;;;;;;5064644;28;20186;-82
2022/08/17 04:10:05;;;;;;;14.87;13.10;;;21.90;99.90;;;;;;5074945;28;21180;-82
2022/08/17 04:12:43;;;;;;;13.87;11.63;;;21.90;99.90;;;;;;5054197;28;20231;-83
2022/08/17 04:15:10;;;;;;;14.90;11.97;;;21.90;99.90;;;;;;5058479;28;20459;-83
2022/08/17 04:17:36;;;;;;;12.57;10.77;;;21.90;99.90;;;;;;5056917;28;20488;-82
2022/08/17 04:20:01;;;;;;;11.17;8.80;;;22.00;99.90;;;;;;5070239;28;20900;-82
2022/08/17 04:22:27;;;;;;;12.23;10.43;;;22.00;99.90;;;;;;5056642;28;20186;-83
2022/08/17 04:24:52;;;;;;;11.70;9.87;;;22.10;99.90;;;;;;5071777;28;20557;-82
2022/08/17 04:27:18;;;;;;;10.13;9.03;;;22.10;99.90;;;;;;5073894;28;20198;-83
2022/08/17 04:29:44;;;;;;;13.50;12.10;;;22.10;99.90;;;;;;5060023;28;20180;-85
2022/08/17 04:32:09;;;;;;;15.50;13.50;;;22.20;99.90;;;;;;5051711;28;20185;-83
2022/08/17 04:34:35;;;;;;;15.80;10.90;;;22.20;99.90;;;;;;5049672;28;20234;-83
2022/08/17 04:37:00;;;;;;;19.17;13.43;;;22.20;99.90;;;;;;5050959;28;20210;-83
2022/08/17 04:39:27;;;;;;;20.87;12.17;;;22.20;99.90;;;;;;5050161;28;20198;-83
2022/08/17 04:42:15;;;;;;;13.63;11.60;;;22.10;99.90;;;;;;5050954;28;20180;-83
2022/08/17 04:44:42;;;;;;;14.77;12.17;;;22.10;99.90;;;;;;5063805;28;20470;-83
2022/08/17 04:47:08;;;;;;;13.40;11.63;;;22.10;99.90;;;;;;5048679;28;20455;-83
2022/08/17 04:49:33;;;;;;;10.67;9.57;;;22.10;99.90;;;;;;5076666;28;20445;-83
2022/08/17 04:51:59;;;;;;;17.60;12.97;;;22.10;99.90;;;;;;5052194;28;20186;-82
2022/08/17 04:54:25;;;;;;;12.47;9.70;;;22.20;99.90;;;;;;5046184;28;20260;-84
2022/08/17 04:56:51;;;;;;;14.57;10.43;;;22.20;99.90;;;;;;5055115;28;20232;-83
2022/08/17 04:59:19;;;;;;;16.43;11.13;;;22.30;99.90;;;;;;5055649;28;20464;-83
2022/08/17 05:01:48;;;;;;;16.50;10.90;;;22.40;99.90;;;;;;5056437;28;20221;-83
2022/08/17 05:04:23;;;;;;;16.30;11.70;;;22.50;99.90;;;;;;5059525;28;20445;-83
2022/08/17 05:06:49;;;;;;;19.83;11.60;;;22.50;99.90;;;;;;5068111;28;20464;-82
2022/08/17 05:09:16;;;;;;;23.33;12.63;;;22.60;99.90;;;;;;5055367;28;20455;-83
2022/08/17 05:11:43;;;;;;;20.00;9.70;;;22.60;99.90;;;;;;5048642;28;20473;-82
2022/08/17 05:14:08;;;;;;;16.73;10.30;;;22.60;99.90;;;;;;5060322;28;20570;-85
2022/08/17 05:16:34;;;;;;;14.30;10.50;;;22.70;99.90;;;;;;5052901;28;20541;-85
2022/08/17 05:19:01;;;;;;;16.83;10.50;;;22.70;99.90;;;;;;5063834;28;20188;-84
2022/08/17 05:21:27;;;;;;;17.00;11.00;;;22.80;99.90;;;;;;5035762;28;20226;-85
2022/08/17 05:23:53;;;;;;;15.77;10.57;;;22.80;99.90;;;;;;5040647;28;20435;-85
2022/08/17 05:26:20;;;;;;;18.67;9.70;;;22.80;99.90;;;;;;5042910;28;21432;-86
2022/08/17 05:28:47;;;;;;;14.43;9.30;;;22.80;99.90;;;;;;5042833;28;20434;-85
2022/08/17 05:31:13;;;;;;;13.57;8.40;;;22.80;99.90;;;;;;5057621;28;20424;-85
2022/08/17 05:33:41;;;;;;;9.70;8.70;;;22.80;99.90;;;;;;5042907;28;22000;-85
2022/08/17 05:36:09;;;;;;;16.80;10.20;;;22.90;99.90;;;;;;5062601;28;20454;-86
2022/08/17 05:38:35;;;;;;;13.47;10.37;;;22.90;99.90;;;;;;5055347;28;20481;-86
2022/08/17 05:41:03;;;;;;;14.47;9.73;;;22.90;99.90;;;;;;5044181;28;20548;-86
2022/08/17 05:43:32;;;;;;;18.07;9.27;;;22.90;99.90;;;;;;5061058;28;20445;-86
2022/08/17 05:46:10;;;;;;;16.33;9.53;;;22.90;99.90;;;;;;5047330;28;20466;-86
2022/08/17 05:48:45;;;;;;;12.60;9.27;;;22.90;99.90;;;;;;5057049;28;20475;-86
2022/08/17 05:51:20;;;;;;;14.50;10.37;;;23.00;99.90;;;;;;5063873;28;20433;-87
2022/08/17 05:54:08;;;;;;;18.57;10.33;;;23.00;99.90;;;;;;5067750;28;20476;-86
2022/08/17 05:57:12;;;;;;;13.70;10.60;;;23.10;99.90;;;;;;5041499;28;20463;-86
2022/08/17 06:00:00;;;;;;;10.10;9.10;;;23.10;99.90;;;;;;4991906;28;20454;-86
2022/08/17 06:02:44;;;;;;;14.60;9.80;;;23.10;99.90;;;;;;5061062;28;20447;-86
2022/08/17 06:05:33;;;;;;;13.83;9.50;;;23.10;99.90;;;;;;5071589;28;20437;-86
2022/08/17 06:08:16;;;;;;;14.00;9.53;;;23.20;99.90;;;;;;5064758;28;20534;-86
2022/08/17 06:11:11;;;;;;;9.70;8.73;;;23.20;99.90;;;;;;5062591;28;20450;-86
2022/08/17 06:13:59;;;;;;;11.60;10.20;;;23.20;99.90;;;;;;5026522;28;20564;-86
2022/08/17 06:16:35;;;;;;;12.30;9.60;;;23.20;99.90;;;;;;5057031;28;20537;-86
2022/08/17 06:19:21;;;;;;;11.73;9.60;;;23.30;99.90;;;;;;5055462;28;20439;-85
2022/08/17 06:21:49;;;;;;;18.07;10.23;;;23.30;99.90;;;;;;5063634;28;20484;-86
2022/08/17 06:24:17;;;;;;;11.53;10.30;;;23.30;99.90;;;;;;5058664;28;20438;-87
2022/08/17 06:26:44;;;;;;;14.63;10.80;;;23.40;99.90;;;;;;5054876;28;21182;-86
2022/08/17 06:29:34;;;;;;;13.90;10.30;;;23.30;99.90;;;;;;5041902;28;20528;-86
2022/08/17 06:32:01;;;;;;;14.30;10.57;;;23.30;99.90;;;;;;5034517;28;20454;-86
2022/08/17 06:34:28;;;;;;;29.90;10.10;;;23.30;99.90;;;;;;5060191;28;20486;-86
2022/08/17 06:37:14;;;;;;;11.67;10.53;;;23.30;99.90;;;;;;5034147;28;20536;-87
2022/08/17 06:39:46;;;;;;;12.13;10.77;;;23.30;99.90;;;;;;5056433;28;20670;-86
2022/08/17 06:42:46;;;;;;;14.93;9.40;;;23.40;99.90;;;;;;5059068;28;20450;-86
2022/08/17 06:45:30;;;;;;;11.83;10.63;;;23.50;99.90;;;;;;5061001;28;20437;-86
2022/08/17 06:48:09;;;;;;;19.13;11.00;;;23.50;99.90;;;;;;5044301;28;20439;-86
2022/08/17 06:50:45;;;;;;;15.23;11.27;;;23.60;99.90;;;;;;5045219;28;20461;-86
2022/08/17 06:53:34;;;;;;;12.37;10.20;;;23.70;99.90;;;;;;5055953;28;20472;-87
2022/08/17 06:56:12;;;;;;;13.00;11.67;;;23.80;99.90;;;;;;5059063;28;20459;-85
2022/08/17 06:58:42;;;;;;;21.13;9.87;;;24.00;99.90;;;;;;5066003;28;20431;-88
2022/08/17 07:01:12;;;;;;;12.83;10.93;;;24.10;99.90;;;;;;5040152;28;20824;-87
2022/08/17 07:03:54;;;;;;;13.63;11.23;;;24.30;99.90;;;;;;5041701;28;20440;-88
2022/08/17 07:06:32;;;;;;;12.43;10.30;;;24.50;99.90;;;;;;5046713;28;21161;-87
2022/08/17 07:09:24;;;;;;;13.03;9.80;;;24.70;99.90;;;;;;5045022;28;20472;-88
2022/08/17 07:12:08;;;;;;;13.50;10.00;;;25.00;99.90;;;;;;5048752;28;20539;-87
2022/08/17 07:14:55;;;;;;;12.43;10.53;;;25.30;99.90;;;;;;5037109;28;20465;-87
2022/08/17 07:17:23;;;;;;;15.17;11.10;;;25.60;99.90;;;;;;5047858;28;21007;-86
2022/08/17 07:19:51;;;;;;;12.53;11.43;;;25.70;99.90;;;;;;5046990;28;20462;-88
2022/08/17 07:22:32;;;;;;;11.67;10.60;;;25.70;99.90;;;;;;5044726;28;20442;-86
2022/08/17 07:25:01;;;;;;;13.00;11.80;;;25.70;99.90;;;;;;5062191;28;20485;-88
2022/08/17 07:27:31;;;;;;;13.13;11.73;;;25.60;99.90;;;;;;5037715;28;20565;-85
2022/08/17 07:30:06;;;;;;;12.63;11.30;;;25.60;99.90;;;;;;5055274;28;20448;-85
2022/08/17 07:32:40;;;;;;;13.53;11.87;;;25.50;99.90;;;;;;5044361;28;20440;-85
2022/08/17 07:35:09;;;;;;;13.13;12.03;;;25.50;99.90;;;;;;5039800;28;20445;-87
2022/08/17 07:37:37;;;;;;;16.77;11.90;;;25.40;99.90;;;;;;5043969;28;20889;-87
2022/08/17 07:40:31;;;;;;;16.53;12.90;;;25.20;99.90;;;;;;5052624;28;20462;-87
2022/08/17 07:43:13;;;;;;;13.60;11.87;;;25.10;99.90;;;;;;5063411;28;20531;-88
2022/08/17 07:48:52;;;;;;;20.17;12.17;;;25.10;99.90;;;;;;5057586;28;20511;-88
2022/08/17 07:51:26;;;;;;;13.37;11.83;;;25.10;99.90;;;;;;5043756;28;20430;-88
2022/08/17 07:54:25;;;;;;;16.00;12.90;;;25.10;99.90;;;;;;5054162;28;20473;-88
2022/08/17 07:57:02;;;;;;;16.13;12.87;;;25.10;99.90;;;;;;5068345;28;20463;-86
2022/08/17 08:00:01;;;;;;;14.83;13.03;;;25.10;99.90;;;;;;5051277;28;20435;-87
2022/08/17 08:02:37;;;;;;;15.07;12.60;;;25.10;99.90;;;;;;5046645;28;20459;-86
2022/08/17 08:05:24;;;;;;;15.90;12.40;;;25.00;99.90;;;;;;5057721;28;20788;-86
2022/08/17 08:07:56;;;;;;;14.23;12.83;;;24.90;99.90;;;;;;5049508;28;20445;-86
2022/08/17 08:10:28;;;;;;;14.23;12.83;;;24.80;99.90;;;;;;5043399;28;20852;-86
2022/08/17 08:13:13;;;;;;;15.20;13.70;;;24.70;99.90;;;;;;5048127;28;20460;-86
2022/08/17 08:15:42;;;;;;;13.83;12.53;;;24.70;99.90;;;;;;5042884;28;20526;-85
2022/08/17 08:18:32;;;;;;;14.60;13.00;;;24.60;99.90;;;;;;5061056;28;20424;-86
2022/08/17 08:21:27;;;;;;;13.13;11.90;;;24.60;99.90;;;;;;5052343;28;20513;-86
2022/08/17 08:24:23;;;;;;;14.93;13.53;;;24.50;99.90;;;;;;5042279;28;20435;-85
2022/08/17 08:27:11;;;;;;;14.53;13.07;;;24.50;99.90;;;;;;5058597;28;20456;-86
2022/08/17 08:29:56;;;;;;;15.90;13.90;;;24.50;99.90;;;;;;5052714;28;20438;-87
2022/08/17 08:32:41;;;;;;;15.73;12.20;;;24.50;99.90;;;;;;5062687;28;20438;-86
2022/08/17 08:35:10;;;;;;;15.77;13.07;;;24.60;99.90;;;;;;5063141;28;20427;-87
2022/08/17 08:37:56;;;;;;;14.40;12.70;;;24.60;99.90;;;;;;5056348;28;20437;-87
2022/08/17 08:40:34;;;;;;;16.27;14.67;;;24.70;99.90;;;;;;5061191;28;20423;-87
2022/08/17 08:43:17;;;;;;;14.30;12.47;;;24.70;99.90;;;;;;5078106;28;20432;-88
2022/08/17 08:45:57;;;;;;;15.40;13.73;;;24.80;99.90;;;;;;5062170;28;20440;-86
2022/08/17 08:48:35;;;;;;;14.60;13.00;;;24.80;99.90;;;;;;5067673;28;20454;-87
2022/08/17 08:51:08;;;;;;;13.43;12.00;;;24.80;99.90;;;;;;5046276;28;20579;-87
2022/08/17 08:53:56;;;;;;;14.07;12.50;;;25.00;99.90;;;;;;5068850;28;20455;-87
2022/08/17 08:56:34;;;;;;;16.70;12.90;;;25.20;99.90;;;;;;5076315;28;20437;-87
2022/08/17 08:59:19;;;;;;;18.43;12.87;;;25.50;99.90;;;;;;5038101;28;21015;-87
2022/08/17 09:02:00;;;;;;;18.87;14.60;;;25.70;99.90;;;;;;5072232;28;20398;-87
2022/08/17 09:04:42;;;;;;;14.43;12.57;;;26.00;99.90;;;;;;5051222;28;20514;-86
2022/08/17 09:07:33;;;;;;;18.27;14.23;;;26.30;99.90;;;;;;5043080;28;20517;-87
2022/08/17 09:10:24;;;;;;;13.60;12.20;;;26.40;99.90;;;;;;5040799;28;20931;-87
2022/08/17 09:13:08;;;;;;;16.50;15.00;;;26.40;99.90;;;;;;5040679;28;20553;-87
2022/08/17 09:15:46;;;;;;;17.73;13.53;;;26.30;99.90;;;;;;5049045;28;20816;-87
2022/08/17 09:18:26;;;;;;;17.83;15.30;;;26.20;99.90;;;;;;5037891;28;21826;-87
2022/08/17 09:21:04;;;;;;;22.90;13.90;;;26.10;99.90;;;;;;5046404;28;20431;-87
2022/08/17 09:23:41;;;;;;;17.93;14.07;;;26.10;99.90;;;;;;5044119;28;20437;-87
2022/08/17 09:26:21;;;;;;;15.87;14.33;;;26.10;99.90;;;;;;5074283;28;20509;-87
2022/08/17 09:28:51;;;;;;;15.00;13.53;;;26.10;99.90;;;;;;5045065;28;20430;-87
2022/08/17 09:31:22;;;;;;;15.53;14.13;;;26.10;99.90;;;;;;5071567;28;20854;-87
2022/08/17 09:33:50;;;;;;;16.13;14.53;;;26.00;99.90;;;;;;5068860;28;20829;-87
2022/08/17 09:36:24;;;;;;;16.43;14.93;;;26.00;99.90;;;;;;5059270;28;20535;-87
2022/08/17 09:39:23;;;;;;;17.03;15.33;;;25.90;99.90;;;;;;5054145;28;20507;-87
2022/08/17 09:42:06;;;;;;;18.50;16.53;;;25.70;99.90;;;;;;5037573;28;20568;-87
2022/08/17 09:44:38;;;;;;;21.43;16.80;;;25.40;99.90;;;;;;5064430;28;20450;-88
2022/08/17 09:47:24;;;;;;;19.07;17.23;;;25.10;99.90;;;;;;5046133;28;20448;-87
2022/08/17 09:49:55;;;;;;;18.60;16.80;;;24.90;99.90;;;;;;5043884;28;20433;-88
2022/08/17 09:52:28;;;;;;;17.23;15.50;;;24.70;99.90;;;;;;5040340;28;20441;-88
2022/08/17 09:54:56;;;;;;;20.20;17.87;;;24.50;99.90;;;;;;5061618;28;20474;-87
2022/08/17 09:57:22;;;;;;;18.93;16.90;;;24.30;99.90;;;;;;5042699;28;20460;-87
2022/08/17 09:59:56;;;;;;;18.27;16.37;;;24.20;99.90;;;;;;5042518;28;21003;-87
2022/08/17 10:02:31;;;;;;;18.33;16.37;;;24.00;99.90;;;;;;5046570;28;20581;-87
2022/08/17 10:05:07;;;;;;;20.63;17.83;;;23.90;99.90;;;;;;5048799;28;20442;-87
2022/08/17 10:07:42;;;;;;;19.83;17.90;;;23.80;99.90;;;;;;5043997;28;20455;-87
2022/08/17 10:10:24;;;;;;;19.17;17.27;;;23.70;1.00;;;;;;5046566;28;20427;-86
2022/08/17 10:13:14;;;;;;;19.47;17.67;;;23.60;1.00;;;;;;5058195;28;20432;-87
2022/08/17 10:16:21;;;;;;;21.90;19.70;;;23.50;1.00;;;;;;5045071;28;20842;-86
2022/08/17 10:19:22;;;;;;;20.57;18.50;;;23.30;99.90;;;;;;4960378;28;20449;-87
2022/08/17 10:27:41;;;;;;;20.07;18.07;;;22.90;85.60;;;;;;5067000;28;20495;-87
2022/08/17 10:30:14;;;;;;;21.10;19.10;;;22.70;99.90;;;;;;5066347;28;20431;-87
2022/08/17 10:33:14;;;;;;;21.13;19.07;;;22.60;1.00;;;;;;5052922;28;20497;-87
2022/08/17 10:36:09;;;;;;;21.37;19.30;;;22.60;1.00;;;;;;5031864;28;20997;-87
2022/08/17 10:38:46;;;;;;;22.03;18.60;;;22.50;99.90;;;;;;5045800;28;20491;-87
2022/08/17 10:41:14;;;;;;;23.13;20.77;;;22.50;99.90;;;;;;5050404;28;20439;-87
2022/08/17 10:44:10;;;;;;;22.67;20.47;;;22.50;99.90;;;;;;5062702;28;20452;-88
2022/08/17 10:46:54;;;;;;;22.33;20.00;;;22.50;1.00;;;;;;5058144;28;20465;-87
2022/08/17 10:49:20;;;;;;;23.70;21.40;;;22.60;99.90;;;;;;5056471;28;20437;-87
2022/08/17 10:51:51;;;;;;;28.17;22.57;;;22.70;1.00;;;;;;5054030;28;20452;-88
2022/08/17 10:54:55;;;;;;;23.30;21.07;;;22.80;1.00;;;;;;5052574;28;20293;-87
2022/08/17 10:57:32;;;;;;;25.00;22.43;;;23.00;1.00;;;;;;5032091;28;20997;-88
2022/08/17 11:00:14;;;;;;;26.70;22.83;;;23.20;99.90;;;;;;5036009;28;20535;-88
2022/08/17 11:02:50;;;;;;;25.07;22.67;;;23.30;99.90;;;;;;5040291;28;20462;-87
2022/08/17 11:06:00;;;;;;;28.17;25.23;;;23.40;1.00;;;;;;5058187;28;20438;-88
2022/08/17 11:08:32;;;;;;;28.40;24.80;;;23.40;1.00;;;;;;5033656;28;20434;-88
2022/08/17 11:11:35;;;;;;;27.53;24.70;;;23.40;1.00;;;;;;5045009;28;20803;-88
2022/08/17 11:14:22;;;;;;;30.27;25.83;;;23.40;43.50;;;;;;5046360;28;20545;-87
2022/08/17 11:17:11;;;;;;;29.47;26.47;;;23.60;1.00;;;;;;5037798;28;20463;-87
2022/08/17 11:20:08;;;;;;;30.20;27.20;;;23.80;99.90;;;;;;5066182;28;20430;-87
2022/08/17 11:23:01;;;;;;;29.67;26.73;;;24.20;99.90;;;;;;5040387;28;20917;-86
2022/08/17 11:25:40;;;;;;;29.87;26.77;;;24.50;1.00;;;;;;5042017;28;20546;-87
2022/08/17 11:28:18;;;;;;;30.53;27.67;;;24.90;99.90;;;;;;5044898;28;20436;-87
2022/08/17 11:30:49;;;;;;;31.70;28.63;;;25.20;99.90;;;;;;5049665;28;20981;-85
2022/08/17 11:33:32;;;;;;;33.40;30.10;;;25.50;99.90;;;;;;5074126;28;20484;-87
2022/08/17 11:36:25;;;;;;;31.17;28.40;;;25.90;1.00;;;;;;5049603;28;20462;-87
2022/08/17 11:39:18;;;;;;;27.27;24.40;;;26.20;1.00;;;;;;5064789;28;20984;-86
2022/08/17 11:42:07;;;;;;;23.13;20.90;;;26.50;1.00;;;;;;5049006;28;20801;-85
2022/08/17 11:44:45;;;;;;;25.07;22.63;;;26.90;1.00;;;;;;5046370;28;20482;-85
2022/08/17 11:53:38;;;;;;;25.37;22.97;;;27.60;99.90;;;;;;5069290;28;20450;-86
2022/08/17 11:56:08;;;;;;;23.90;21.80;;;27.30;99.90;;;;;;5066943;28;20435;-85
2022/08/17 11:58:41;;;;;;;26.10;23.67;;;26.90;99.90;;;;;;5069922;28;20418;-86
2022/08/17 12:01:48;;;;;;;25.10;22.80;;;26.50;99.90;;;;;;5044174;28;20435;-85
2022/08/17 12:04:26;;;;;;;23.03;21.00;;;26.20;99.90;;;;;;5030409;28;20427;-85
2022/08/17 12:06:58;;;;;;;25.90;23.20;;;26.00;99.90;;;;;;5045679;28;20486;-85
2022/08/17 12:09:30;;;;;;;25.57;22.93;;;25.80;99.90;;;;;;5072697;28;20429;-85
2022/08/17 12:12:02;;;;;;;22.17;19.97;;;25.70;1.00;;;;;;5042480;28;20436;-85
2022/08/17 12:14:31;;;;;;;21.90;19.67;;;25.70;1.00;;;;;;5062992;28;20450;-85
2022/08/17 12:17:04;;;;;;;21.70;19.67;;;25.80;1.00;;;;;;5043213;28;20529;-84
2022/08/17 12:19:32;;;;;;;20.47;18.57;;;26.10;1.00;;;;;;5043004;28;20523;-85
2022/08/17 12:22:02;;;;;;;21.50;19.43;;;26.30;99.90;;;;;;5047973;28;20463;-85
2022/08/17 12:24:47;;;;;;;22.30;20.20;;;26.50;99.90;;;;;;5040404;28;20501;-85
2022/08/17 12:27:24;;;;;;;21.40;19.40;;;26.70;99.90;;;;;;5046807;28;20455;-85
2022/08/17 12:29:51;;;;;;;21.30;19.20;;;26.70;99.90;;;;;;5065469;28;20442;-85
2022/08/17 12:32:19;;;;;;;23.20;21.10;;;26.50;99.90;;;;;;5054162;28;20470;-85
2022/08/17 12:34:47;;;;;;;22.80;20.70;;;26.40;99.90;;;;;;5044594;28;21002;-85
2022/08/17 12:37:20;;;;;;;24.00;21.57;;;26.40;99.90;;;;;;5064203;28;20451;-85
2022/08/17 12:39:53;;;;;;;24.50;22.27;;;26.60;99.90;;;;;;5055832;28;20519;-85
2022/08/17 12:42:31;;;;;;;23.30;21.30;;;26.60;99.90;;;;;;5069919;28;20422;-85
2022/08/17 12:44:57;;;;;;;22.60;20.30;;;26.60;99.90;;;;;;5049647;28;20434;-85
2022/08/17 12:47:23;;;;;;;23.30;21.13;;;26.50;99.90;;;;;;5046882;28;20817;-85
2022/08/17 12:49:52;;;;;;;24.37;21.90;;;26.40;99.90;;;;;;5047668;28;20611;-86
2022/08/17 12:52:23;;;;;;;24.10;21.60;;;26.30;99.90;;;;;;5040087;28;20518;-86
2022/08/17 12:55:06;;;;;;;24.43;22.23;;;26.30;99.90;;;;;;5062709;28;20809;-86
2022/08/17 12:57:44;;;;;;;23.93;21.63;;;26.50;99.90;;;;;;5067783;28;20827;-86
2022/08/17 13:00:14;;;;;;;24.13;22.00;;;26.50;99.90;;;;;;5049303;28;20949;-84
2022/08/17 13:02:50;;;;;;;26.20;23.80;;;26.30;99.90;;;;;;5038069;28;20871;-84
2022/08/17 13:05:40;;;;;;;22.67;20.53;;;26.00;99.90;;;;;;5055269;28;20533;-83
2022/08/17 13:08:14;;;;;;;23.57;21.27;;;25.60;99.90;;;;;;5044247;28;20513;-85
2022/08/17 13:10:40;;;;;;;23.73;21.53;;;25.30;99.90;;;;;;5039986;28;20427;-85
2022/08/17 13:13:22;;;;;;;23.40;21.30;;;25.20;99.90;;;;;;5041998;28;20465;-85
2022/08/17 13:15:55;;;;;;;24.07;21.97;;;25.00;1.00;;;;;;5044776;28;20269;-84
2022/08/17 13:18:41;;;;;;;23.93;21.70;;;25.00;1.00;;;;;;5037628;28;20512;-85
2022/08/17 13:21:17;;;;;;;23.90;21.40;;;25.20;1.00;;;;;;5041463;28;20434;-85
2022/08/17 13:24:12;;;;;;;26.57;23.97;;;25.50;1.00;;;;;;5041929;28;20440;-84
2022/08/17 13:26:49;;;;;;;25.47;23.17;;;25.60;1.00;;;;;;5062514;28;20458;-84
2022/08/17 13:29:29;;;;;;;26.63;24.00;;;25.70;1.00;;;;;;5045630;28;20433;-84
2022/08/17 13:32:11;;;;;;;24.13;21.80;;;25.70;1.00;;;;;;5056096;28;20451;-85
2022/08/17 13:34:46;;;;;;;26.83;24.33;;;26.10;1.00;;;;;;5046265;28;20475;-85